sensor_id;sensor_type;location;lat;lon;timestamp;P1;P4;P2;P0;N10;N4;N25;N1;N05;TS
67098;SPS30;54288;53.046;5.668;2023-07-30T00:02:16;7.09;6.89;5.88;4.38;35.15;35.11;34.84;33.49;27.80;0.72
67098;SPS30;54288;53.046;5.668;2023-07-30T00:04:43;6.91;6.72;5.76;4.33;34.80;34.76;34.51;33.24;27.67;0.73
67098;SPS30;54288;53.046;5.668;2023-07-30T00:07:09;7.19;6.97;5.87;4.27;34.33;34.28;33.99;32.54;26.83;0.75
67098;SPS30;54288;53.046;5.668;2023-07-30T00:09:35;6.96;6.74;5.67;4.10;32.95;32.90;32.62;31.20;25.68;0.74
67098;SPS30;54288;53.046;5.668;2023-07-30T00:12:01;7.78;7.52;6.19;4.30;34.62;34.56;34.22;32.48;26.41;0.77
67098;SPS30;54288;53.046;5.668;2023-07-30T00:14:27;7.69;7.44;6.21;4.44;35.69;35.64;35.32;33.69;27.64;0.75
67098;SPS30;54288;53.046;5.668;2023-07-30T00:16:53;7.26;7.05;5.98;4.41;35.40;35.35;35.07;33.65;27.86;0.75
67098;SPS30;54288;53.046;5.668;2023-07-30T00:19:19;6.90;6.71;5.76;4.33;34.79;34.75;34.50;33.22;27.67;0.73
67098;SPS30;54288;53.046;5.668;2023-07-30T00:21:44;7.95;7.69;6.43;4.60;36.99;36.94;36.61;34.94;28.67;0.75
67098;SPS30;54288;53.046;5.668;2023-07-30T00:24:12;7.32;7.10;6.01;4.40;35.34;35.30;35.01;33.55;27.72;0.73
67098;SPS30;54288;53.046;5.668;2023-07-30T00:26:38;6.73;6.54;5.60;4.20;33.71;33.67;33.42;32.16;26.75;0.72
67098;SPS30;54288;53.046;5.668;2023-07-30T00:29:04;6.96;6.74;5.67;4.11;33.01;32.97;32.68;31.26;25.75;0.74
67098;SPS30;54288;53.046;5.668;2023-07-30T00:31:30;7.36;7.13;5.96;4.28;34.39;34.35;34.04;32.50;26.69;0.74
67098;SPS30;54288;53.046;5.668;2023-07-30T00:33:57;6.88;6.67;5.64;4.12;33.14;33.10;32.83;31.46;25.99;0.73
67098;SPS30;54288;53.046;5.668;2023-07-30T00:36:22;7.18;6.95;5.78;4.09;32.91;32.86;32.55;31.01;25.37;0.75
67098;SPS30;54288;53.046;5.668;2023-07-30T00:38:48;7.27;7.03;5.84;4.13;33.25;33.21;32.89;31.33;25.63;0.75
67098;SPS30;54288;53.046;5.668;2023-07-30T00:41:14;7.09;6.85;5.66;3.97;31.91;31.87;31.56;29.99;24.45;0.76
67098;SPS30;54288;53.046;5.668;2023-07-30T00:43:40;7.20;6.96;5.79;4.11;33.06;33.02;32.71;31.17;25.52;0.75
67098;SPS30;54288;53.046;5.668;2023-07-30T00:46:05;7.12;6.88;5.68;3.97;31.97;31.92;31.61;30.03;24.47;0.75
67098;SPS30;54288;53.046;5.668;2023-07-30T00:48:31;7.12;6.86;5.58;3.78;30.46;30.41;30.08;28.41;22.92;0.77
67098;SPS30;54288;53.046;5.668;2023-07-30T00:50:58;7.36;7.09;5.77;3.92;31.55;31.50;31.15;29.43;23.75;0.78
67098;SPS30;54288;53.046;5.668;2023-07-30T00:53:26;7.71;7.42;5.98;3.98;32.05;32.00;31.62;29.75;23.84;0.80
67098;SPS30;54288;53.046;5.668;2023-07-30T00:55:53;7.04;6.79;5.55;3.79;30.55;30.51;30.18;28.56;23.11;0.77
67098;SPS30;54288;53.046;5.668;2023-07-30T00:58:20;7.00;6.77;5.58;3.89;31.33;31.28;30.97;29.41;23.95;0.76
67098;SPS30;54288;53.046;5.668;2023-07-30T01:00:47;6.53;6.32;5.30;3.82;30.69;30.65;30.38;29.03;23.87;0.73
67098;SPS30;54288;53.046;5.668;2023-07-30T01:03:13;6.60;6.40;5.39;3.91;31.40;31.35;31.09;29.74;24.51;0.73
67098;SPS30;54288;53.046;5.668;2023-07-30T01:05:39;6.20;6.01;5.06;3.68;29.59;29.55;29.30;28.05;23.13;0.74
67098;SPS30;54288;53.046;5.668;2023-07-30T01:08:05;7.13;6.87;5.56;3.73;30.09;30.04;29.69;27.99;22.51;0.78
67098;SPS30;54288;53.046;5.668;2023-07-30T01:10:30;6.99;6.75;5.56;3.86;31.09;31.04;30.73;29.16;23.72;0.76
67098;SPS30;54288;53.046;5.668;2023-07-30T01:13:01;7.12;6.87;5.59;3.79;30.52;30.47;30.14;28.47;22.97;0.78
67098;SPS30;54288;53.046;5.668;2023-07-30T01:15:29;6.79;6.56;5.40;3.75;30.20;30.15;29.85;28.33;23.04;0.76
67098;SPS30;54288;53.046;5.668;2023-07-30T01:17:56;7.25;7.00;5.78;4.04;32.54;32.50;32.18;30.57;24.91;0.75
67098;SPS30;54288;53.046;5.668;2023-07-30T01:20:22;6.72;6.48;5.31;3.65;29.42;29.38;29.07;27.54;22.32;0.76
67098;SPS30;54288;53.046;5.668;2023-07-30T01:22:47;6.54;6.31;5.15;3.51;28.29;28.24;27.94;26.42;21.36;0.76
67098;SPS30;54288;53.046;5.668;2023-07-30T01:25:16;6.53;6.29;5.14;3.51;28.29;28.24;27.94;26.43;21.38;0.77
67098;SPS30;54288;53.046;5.668;2023-07-30T01:27:44;6.49;6.26;5.08;3.43;27.66;27.61;27.31;25.77;20.77;0.79
67098;SPS30;54288;53.046;5.668;2023-07-30T01:30:18;7.11;6.84;5.51;3.65;29.39;29.34;29.00;27.26;21.82;0.79
67098;SPS30;54288;53.046;5.668;2023-07-30T01:32:50;6.15;5.93;4.83;3.27;26.37;26.33;26.04;24.60;19.86;0.78
67098;SPS30;54288;53.046;5.668;2023-07-30T01:35:18;6.46;6.23;5.09;3.48;27.99;27.94;27.65;26.15;21.15;0.77
67098;SPS30;54288;53.046;5.668;2023-07-30T01:37:47;6.40;6.18;5.08;3.51;28.27;28.23;27.94;26.49;21.51;0.77
67098;SPS30;54288;53.046;5.668;2023-07-30T01:40:15;6.42;6.20;5.10;3.53;28.45;28.41;28.12;26.67;21.68;0.75
67098;SPS30;54288;53.046;5.668;2023-07-30T01:42:41;6.16;5.96;4.96;3.53;28.39;28.35;28.09;26.78;21.94;0.72
67098;SPS30;54288;53.046;5.668;2023-07-30T01:45:07;6.53;6.32;5.24;3.69;29.70;29.66;29.38;27.96;22.84;0.73
67098;SPS30;54288;53.046;5.668;2023-07-30T01:47:33;5.70;5.52;4.65;3.38;27.18;27.14;26.91;25.76;21.24;0.71
67098;SPS30;54288;53.046;5.668;2023-07-30T01:49:58;6.39;6.19;5.18;3.72;29.88;29.84;29.57;28.24;23.20;0.73
67098;SPS30;54288;53.046;5.668;2023-07-30T01:52:25;6.43;6.23;5.23;3.77;30.33;30.29;30.02;28.70;23.61;0.72
67098;SPS30;54288;53.046;5.668;2023-07-30T01:54:51;5.49;5.33;4.51;3.31;26.59;26.55;26.34;25.25;20.88;0.73
67098;SPS30;54288;53.046;5.668;2023-07-30T01:57:17;5.92;5.75;4.89;3.62;29.05;29.01;28.78;27.64;22.90;0.73
67098;SPS30;54288;53.046;5.668;2023-07-30T01:59:43;6.16;5.96;4.98;3.55;28.58;28.55;28.29;26.99;22.14;0.75
67098;SPS30;54288;53.046;5.668;2023-07-30T02:02:09;6.69;6.46;5.32;3.70;29.80;29.75;29.45;27.96;22.74;0.77
67098;SPS30;54288;53.046;5.668;2023-07-30T02:04:34;6.48;6.26;5.15;3.58;28.80;28.76;28.47;27.01;21.97;0.75
67098;SPS30;54288;53.046;5.668;2023-07-30T02:07:00;6.80;6.54;5.25;3.46;27.87;27.82;27.48;25.80;20.61;0.77
67098;SPS30;54288;53.046;5.668;2023-07-30T02:09:26;6.37;6.15;5.05;3.49;28.10;28.06;27.77;26.33;21.38;0.75
67098;SPS30;54288;53.046;5.668;2023-07-30T02:11:51;6.09;5.88;4.84;3.35;26.98;26.94;26.66;25.29;20.55;0.75
67098;SPS30;54288;53.046;5.668;2023-07-30T02:14:17;6.39;6.17;5.09;3.54;28.48;28.44;28.15;26.72;21.74;0.75
67098;SPS30;54288;53.046;5.668;2023-07-30T02:16:44;6.05;5.85;4.85;3.42;27.51;27.47;27.21;25.89;21.15;0.74
67098;SPS30;54288;53.046;5.668;2023-07-30T02:19:10;5.73;5.54;4.58;3.20;25.75;25.71;25.46;24.19;19.71;0.75
67098;SPS30;54288;53.046;5.668;2023-07-30T02:21:35;6.09;5.88;4.83;3.34;26.85;26.81;26.54;25.16;20.42;0.74
67098;SPS30;54288;53.046;5.668;2023-07-30T02:24:06;5.58;5.40;4.48;3.17;25.47;25.43;25.19;23.98;19.61;0.74
67098;SPS30;54288;53.046;5.668;2023-07-30T02:26:35;5.96;5.75;4.72;3.27;26.32;26.28;26.01;24.66;20.03;0.76
67098;SPS30;54288;53.046;5.668;2023-07-30T02:29:01;5.64;5.45;4.53;3.20;25.73;25.69;25.45;24.23;19.81;0.76
67098;SPS30;54288;53.046;5.668;2023-07-30T02:31:27;6.02;5.80;4.72;3.21;25.84;25.80;25.51;24.11;19.46;0.79
67098;SPS30;54288;53.046;5.668;2023-07-30T02:33:53;6.14;5.92;4.79;3.22;25.91;25.87;25.57;24.10;19.38;0.78
67098;SPS30;54288;53.046;5.668;2023-07-30T02:36:19;5.92;5.71;4.63;3.12;25.12;25.08;24.79;23.39;18.83;0.77
67098;SPS30;54288;53.046;5.668;2023-07-30T02:38:45;5.69;5.49;4.46;3.02;24.33;24.29;24.02;22.68;18.29;0.74
67098;SPS30;54288;53.046;5.668;2023-07-30T02:41:11;5.26;5.07;4.13;2.80;22.56;22.52;22.28;21.04;16.98;0.75
67098;SPS30;54288;53.046;5.668;2023-07-30T02:43:36;5.42;5.23;4.27;2.92;23.50;23.46;23.21;21.96;17.76;0.74
67098;SPS30;54288;53.046;5.668;2023-07-30T02:46:02;4.90;4.72;3.83;2.59;20.84;20.81;20.57;19.42;15.64;0.76
67098;SPS30;54288;53.046;5.668;2023-07-30T02:48:28;5.15;4.96;4.00;2.67;21.53;21.49;21.25;20.00;16.06;0.75
67098;SPS30;54288;53.046;5.668;2023-07-30T02:50:54;5.11;4.93;4.00;2.70;21.75;21.71;21.47;20.26;16.33;0.76
67098;SPS30;54288;53.046;5.668;2023-07-30T02:53:19;4.43;4.28;3.52;2.44;19.62;19.59;19.40;18.40;14.95;0.75
67098;SPS30;54288;53.046;5.668;2023-07-30T02:55:45;4.44;4.30;3.61;2.61;20.96;20.93;20.75;19.84;16.32;0.71
67098;SPS30;54288;53.046;5.668;2023-07-30T02:58:11;4.47;4.34;3.66;2.68;21.53;21.50;21.33;20.44;16.88;0.71
67098;SPS30;54288;53.046;5.668;2023-07-30T03:00:36;4.67;4.52;3.76;2.68;21.54;21.51;21.31;20.32;16.65;0.74
67098;SPS30;54288;53.046;5.668;2023-07-30T03:03:03;4.20;4.07;3.40;2.44;19.63;19.60;19.43;18.55;15.23;0.73
67098;SPS30;54288;53.046;5.668;2023-07-30T03:05:29;4.20;4.06;3.38;2.40;19.29;19.27;19.09;18.19;14.89;0.74
67098;SPS30;54288;53.046;5.668;2023-07-30T03:07:54;4.44;4.29;3.50;2.39;19.25;19.22;19.01;17.98;14.54;0.75
67098;SPS30;54288;53.046;5.668;2023-07-30T03:10:20;5.02;4.84;3.93;2.67;21.47;21.43;21.20;20.02;16.15;0.76
67098;SPS30;54288;53.046;5.668;2023-07-30T03:12:46;4.53;4.38;3.59;2.47;19.88;19.85;19.65;18.61;15.09;0.76
67098;SPS30;54288;53.046;5.668;2023-07-30T03:15:12;4.44;4.29;3.53;2.45;19.75;19.72;19.52;18.53;15.07;0.74
67098;SPS30;54288;53.046;5.668;2023-07-30T03:17:37;4.07;3.93;3.23;2.23;17.92;17.89;17.71;16.78;13.62;0.76
67098;SPS30;54288;53.046;5.668;2023-07-30T03:20:03;4.22;4.06;3.26;2.15;17.37;17.34;17.13;16.09;12.87;0.79
67098;SPS30;54288;53.046;5.668;2023-07-30T03:22:29;4.28;4.11;3.28;2.14;17.24;17.20;16.99;15.91;12.66;0.80
67098;SPS30;54288;53.046;5.668;2023-07-30T03:24:55;4.08;3.92;3.13;2.04;16.46;16.43;16.22;15.20;12.10;0.79
67098;SPS30;54288;53.046;5.668;2023-07-30T03:27:21;3.60;3.46;2.80;1.86;15.02;14.99;14.82;13.95;11.19;0.78
67098;SPS30;54288;53.046;5.668;2023-07-30T03:29:47;3.63;3.49;2.79;1.82;14.68;14.66;14.47;13.56;10.80;0.79
67098;SPS30;54288;53.046;5.668;2023-07-30T03:32:13;3.06;2.94;2.32;1.47;11.83;11.81;11.65;10.84;8.54;0.80
67098;SPS30;54288;53.046;5.668;2023-07-30T03:34:38;3.17;3.04;2.43;1.57;12.68;12.66;12.50;11.70;9.30;0.78
67098;SPS30;54288;53.046;5.668;2023-07-30T03:37:05;2.99;2.87;2.27;1.45;11.74;11.71;11.56;10.79;8.53;0.78
67098;SPS30;54288;53.046;5.668;2023-07-30T03:39:31;3.12;3.00;2.40;1.57;12.70;12.67;12.52;11.75;9.37;0.77
67098;SPS30;54288;53.046;5.668;2023-07-30T03:41:56;2.79;2.68;2.17;1.45;11.71;11.69;11.56;10.89;8.75;0.75
67098;SPS30;54288;53.046;5.668;2023-07-30T03:44:22;2.72;2.62;2.15;1.48;11.91;11.89;11.77;11.15;9.04;0.73
67098;SPS30;54288;53.046;5.668;2023-07-30T03:46:48;2.82;2.73;2.23;1.53;12.30;12.28;12.15;11.50;9.31;0.74
67098;SPS30;54288;53.046;5.668;2023-07-30T03:49:13;2.80;2.71;2.25;1.59;12.81;12.80;12.68;12.07;9.87;0.72
67098;SPS30;54288;53.046;5.668;2023-07-30T03:51:39;2.55;2.46;2.04;1.44;11.56;11.55;11.44;10.88;8.89;0.73
67098;SPS30;54288;53.046;5.668;2023-07-30T03:54:05;2.93;2.83;2.32;1.59;12.81;12.79;12.65;11.98;9.71;0.75
67098;SPS30;54288;53.046;5.668;2023-07-30T03:56:31;3.18;3.06;2.46;1.62;13.08;13.06;12.90;12.12;9.69;0.78
67098;SPS30;54288;53.046;5.668;2023-07-30T03:58:56;2.79;2.69;2.19;1.48;11.89;11.87;11.73;11.07;8.92;0.77
67098;SPS30;54288;53.046;5.668;2023-07-30T04:01:23;3.06;2.94;2.36;1.56;12.56;12.53;12.38;11.63;9.29;0.78
67098;SPS30;54288;53.046;5.668;2023-07-30T04:03:49;2.91;2.80;2.26;1.50;12.11;12.09;11.95;11.25;9.02;0.77
67098;SPS30;54288;53.046;5.668;2023-07-30T04:06:17;3.01;2.90;2.31;1.51;12.15;12.12;11.97;11.21;8.92;0.77
67098;SPS30;54288;53.046;5.668;2023-07-30T04:08:43;3.21;3.08;2.46;1.60;12.92;12.90;12.74;11.93;9.49;0.77
67098;SPS30;54288;53.046;5.668;2023-07-30T04:11:09;3.24;3.11;2.46;1.58;12.72;12.70;12.53;11.69;9.25;0.78
67098;SPS30;54288;53.046;5.668;2023-07-30T04:13:36;3.29;3.16;2.50;1.60;12.87;12.85;12.68;11.82;9.34;0.79
67098;SPS30;54288;53.046;5.668;2023-07-30T04:16:06;3.17;3.05;2.44;1.60;12.91;12.88;12.73;11.94;9.52;0.78
67098;SPS30;54288;53.046;5.668;2023-07-30T04:18:32;3.21;3.09;2.48;1.64;13.25;13.22;13.07;12.28;9.83;0.77
67098;SPS30;54288;53.046;5.668;2023-07-30T04:20:58;2.97;2.86;2.34;1.60;12.90;12.88;12.75;12.06;9.77;0.75
67098;SPS30;54288;53.046;5.668;2023-07-30T04:23:24;3.29;3.17;2.57;1.73;13.95;13.92;13.77;12.99;10.46;0.75
67098;SPS30;54288;53.046;5.668;2023-07-30T04:25:50;3.37;3.25;2.66;1.82;14.65;14.63;14.47;13.70;11.09;0.73
67098;SPS30;54288;53.046;5.668;2023-07-30T04:28:16;3.37;3.25;2.65;1.80;14.53;14.51;14.35;13.57;10.96;0.75
67098;SPS30;54288;53.046;5.668;2023-07-30T04:30:42;2.89;2.78;2.27;1.55;12.48;12.46;12.33;11.66;9.42;0.74
67098;SPS30;54288;53.046;5.668;2023-07-30T04:33:11;3.31;3.19;2.59;1.74;14.05;14.03;13.87;13.08;10.53;0.75
67098;SPS30;54288;53.046;5.668;2023-07-30T04:35:39;3.32;3.19;2.55;1.67;13.46;13.44;13.27;12.44;9.92;0.77
67098;SPS30;54288;53.046;5.668;2023-07-30T04:38:05;2.99;2.88;2.32;1.53;12.33;12.31;12.16;11.43;9.14;0.76
67098;SPS30;54288;53.046;5.668;2023-07-30T04:40:31;2.80;2.69;2.16;1.42;11.41;11.39;11.26;10.56;8.42;0.77
67098;SPS30;54288;53.046;5.668;2023-07-30T04:42:57;3.08;2.97;2.39;1.58;12.76;12.74;12.59;11.84;9.48;0.76
67098;SPS30;54288;53.046;5.668;2023-07-30T04:45:23;3.11;3.01;2.46;1.69;13.62;13.59;13.45;12.74;10.32;0.74
67098;SPS30;54288;53.046;5.668;2023-07-30T04:47:50;2.92;2.82;2.29;1.56;12.57;12.55;12.41;11.73;9.47;0.75
67098;SPS30;54288;53.046;5.668;2023-07-30T04:50:16;2.92;2.82;2.31;1.59;12.82;12.80;12.67;12.00;9.73;0.74
67098;SPS30;54288;53.046;5.668;2023-07-30T04:52:41;3.22;3.10;2.51;1.69;13.58;13.56;13.40;12.63;10.16;0.75
67098;SPS30;54288;53.046;5.668;2023-07-30T04:55:07;3.10;2.98;2.42;1.63;13.13;13.10;12.96;12.22;9.84;0.75
67098;SPS30;54288;53.046;5.668;2023-07-30T04:57:33;2.82;2.72;2.22;1.50;12.10;12.08;11.95;11.29;9.11;0.75
67098;SPS30;54288;53.046;5.668;2023-07-30T04:59:59;2.72;2.62;2.14;1.46;11.75;11.74;11.61;10.98;8.87;0.74
67098;SPS30;54288;53.046;5.668;2023-07-30T05:02:25;2.92;2.81;2.30;1.57;12.66;12.64;12.51;11.83;9.57;0.74
67098;SPS30;54288;53.046;5.668;2023-07-30T05:04:50;2.77;2.69;2.25;1.61;12.94;12.93;12.81;12.23;10.04;0.72
67098;SPS30;54288;53.046;5.668;2023-07-30T05:07:16;2.67;2.59;2.16;1.55;12.47;12.45;12.34;11.78;9.67;0.71
67098;SPS30;54288;53.046;5.668;2023-07-30T05:09:42;2.66;2.57;2.16;1.56;12.53;12.52;12.41;11.86;9.76;0.70
67098;SPS30;54288;53.046;5.668;2023-07-30T05:12:07;2.94;2.85;2.37;1.68;13.54;13.52;13.40;12.77;10.46;0.72
67098;SPS30;54288;53.046;5.668;2023-07-30T05:14:33;2.75;2.66;2.19;1.52;12.21;12.20;12.07;11.45;9.31;0.72
67098;SPS30;54288;53.046;5.668;2023-07-30T05:16:59;2.92;2.82;2.32;1.60;12.91;12.89;12.76;12.10;9.83;0.72
67098;SPS30;54288;53.046;5.668;2023-07-30T05:19:24;3.10;3.00;2.50;1.78;14.28;14.26;14.13;13.47;11.03;0.70
67098;SPS30;54288;53.046;5.668;2023-07-30T05:21:50;2.85;2.76;2.33;1.71;13.73;13.72;13.60;13.04;10.77;0.68
67098;SPS30;54288;53.046;5.668;2023-07-30T05:24:16;2.70;2.63;2.27;1.72;13.82;13.80;13.71;13.22;11.04;0.66
67098;SPS30;54288;53.046;5.668;2023-07-30T05:26:41;3.21;3.11;2.63;1.92;15.47;15.45;15.32;14.68;12.12;0.68
67098;SPS30;54288;53.046;5.668;2023-07-30T05:29:07;3.13;3.04;2.58;1.90;15.23;15.21;15.09;14.47;11.97;0.67
67098;SPS30;54288;53.046;5.668;2023-07-30T05:31:33;3.03;2.94;2.51;1.87;14.99;14.97;14.86;14.28;11.85;0.66
67098;SPS30;54288;53.046;5.668;2023-07-30T05:33:59;3.45;3.34;2.81;2.04;16.38;16.36;16.22;15.52;12.78;0.69
67098;SPS30;54288;53.046;5.668;2023-07-30T05:36:25;3.17;3.07;2.56;1.83;14.72;14.70;14.57;13.89;11.39;0.70
67098;SPS30;54288;53.046;5.668;2023-07-30T05:38:50;3.28;3.18;2.68;1.96;15.73;15.71;15.58;14.92;12.31;0.69
67098;SPS30;54288;53.046;5.668;2023-07-30T05:41:16;3.03;2.95;2.53;1.92;15.40;15.38;15.27;14.72;12.27;0.66
67098;SPS30;54288;53.046;5.668;2023-07-30T05:43:42;2.70;2.63;2.28;1.75;14.01;14.00;13.90;13.43;11.24;0.66
67098;SPS30;54288;53.046;5.668;2023-07-30T05:46:08;2.81;2.73;2.35;1.77;14.25;14.23;14.13;13.62;11.36;0.67
67098;SPS30;54288;53.046;5.668;2023-07-30T05:48:33;3.13;3.04;2.60;1.95;15.68;15.66;15.55;14.96;12.45;0.66
67098;SPS30;54288;53.046;5.668;2023-07-30T05:50:59;2.68;2.61;2.27;1.75;14.01;13.99;13.90;13.44;11.26;0.63
67098;SPS30;54288;53.046;5.668;2023-07-30T05:53:25;2.82;2.74;2.37;1.81;14.56;14.54;14.44;13.95;11.66;0.66
67098;SPS30;54288;53.046;5.668;2023-07-30T05:55:50;2.87;2.80;2.41;1.82;14.64;14.62;14.52;14.00;11.68;0.67
67098;SPS30;54288;53.046;5.668;2023-07-30T05:58:16;5.98;5.82;5.04;3.85;30.89;30.85;30.64;29.59;24.74;0.66
67098;SPS30;54288;53.046;5.668;2023-07-30T06:00:42;8.59;8.45;7.78;6.58;52.65;52.61;52.43;51.46;44.12;0.63
67098;SPS30;54288;53.046;5.668;2023-07-30T06:03:08;2.48;2.45;2.26;1.92;15.40;15.39;15.33;15.07;12.94;0.65
67098;SPS30;54288;53.046;5.668;2023-07-30T06:05:41;2.69;2.63;2.34;1.88;15.10;15.09;15.01;14.62;12.38;0.68
67098;SPS30;54288;53.046;5.668;2023-07-30T06:08:07;2.78;2.71;2.36;1.83;14.65;14.64;14.54;14.07;11.80;0.69
67098;SPS30;54288;53.046;5.668;2023-07-30T06:10:34;3.14;3.05;2.61;1.96;15.78;15.76;15.64;15.06;12.54;0.71
67098;SPS30;54288;53.046;5.668;2023-07-30T06:13:03;3.07;2.97;2.48;1.76;14.17;14.15;14.02;13.37;10.95;0.74
67098;SPS30;54288;53.046;5.668;2023-07-30T06:15:31;2.93;2.83;2.34;1.65;13.24;13.22;13.09;12.45;10.16;0.75
67098;SPS30;54288;53.046;5.668;2023-07-30T06:17:57;3.53;3.41;2.77;1.88;15.18;15.15;14.99;14.16;11.44;0.76
67098;SPS30;54288;53.046;5.668;2023-07-30T06:20:23;3.59;3.46;2.78;1.84;14.82;14.79;14.62;13.74;10.99;0.78
67098;SPS30;54288;53.046;5.668;2023-07-30T06:22:48;3.92;3.76;2.96;1.87;15.07;15.04;14.84;13.80;10.86;0.81
67098;SPS30;54288;53.046;5.668;2023-07-30T06:25:14;4.02;3.86;3.05;1.94;15.63;15.60;15.39;14.34;11.31;0.80
67098;SPS30;54288;53.046;5.668;2023-07-30T06:27:40;3.71;3.56;2.83;1.82;14.68;14.65;14.46;13.51;10.70;0.79
67098;SPS30;54288;53.046;5.668;2023-07-30T06:30:05;3.44;3.30;2.60;1.63;13.17;13.15;12.96;12.05;9.46;0.81
67098;SPS30;54288;53.046;5.668;2023-07-30T06:32:31;3.75;3.59;2.80;1.73;13.94;13.91;13.71;12.69;9.89;0.82
67098;SPS30;54288;53.046;5.668;2023-07-30T06:34:57;3.98;3.82;3.00;1.88;15.17;15.14;14.93;13.87;10.88;0.80
67098;SPS30;54288;53.046;5.668;2023-07-30T06:37:23;3.93;3.77;3.00;1.93;15.54;15.51;15.30;14.30;11.32;0.78
67098;SPS30;54288;53.046;5.668;2023-07-30T06:39:49;3.77;3.62;2.89;1.89;15.22;15.19;15.00;14.06;11.19;0.77
67098;SPS30;54288;53.046;5.668;2023-07-30T06:42:14;3.74;3.60;2.87;1.86;15.02;14.99;14.80;13.86;11.01;0.77
67098;SPS30;54288;53.046;5.668;2023-07-30T06:44:40;3.25;3.13;2.50;1.63;13.18;13.16;13.00;12.18;9.71;0.77
67098;SPS30;54288;53.046;5.668;2023-07-30T06:47:06;3.63;3.49;2.77;1.79;14.43;14.41;14.22;13.30;10.54;0.78
67098;SPS30;54288;53.046;5.668;2023-07-30T06:49:31;3.47;3.33;2.65;1.70;13.71;13.68;13.51;12.61;9.99;0.79
67098;SPS30;54288;53.046;5.668;2023-07-30T06:51:59;3.41;3.27;2.61;1.69;13.61;13.58;13.41;12.54;9.96;0.78
67098;SPS30;54288;53.046;5.668;2023-07-30T06:54:25;3.61;3.47;2.80;1.87;15.04;15.02;14.84;13.97;11.20;0.77
67098;SPS30;54288;53.046;5.668;2023-07-30T06:56:51;3.39;3.27;2.66;1.80;14.49;14.46;14.31;13.51;10.90;0.77
67098;SPS30;54288;53.046;5.668;2023-07-30T06:59:17;3.36;3.24;2.64;1.80;14.48;14.46;14.31;13.53;10.93;0.76
67098;SPS30;54288;53.046;5.668;2023-07-30T07:01:42;2.92;2.82;2.31;1.59;12.83;12.81;12.67;12.01;9.74;0.73
67098;SPS30;54288;53.046;5.668;2023-07-30T07:04:08;3.54;3.41;2.77;1.87;15.08;15.05;14.89;14.05;11.32;0.75
67098;SPS30;54288;53.046;5.668;2023-07-30T07:06:34;3.24;3.12;2.53;1.71;13.75;13.73;13.58;12.81;10.31;0.75
67098;SPS30;54288;53.046;5.668;2023-07-30T07:09:00;2.77;2.67;2.18;1.49;12.02;12.00;11.87;11.23;9.09;0.73
67098;SPS30;54288;53.046;5.668;2023-07-30T07:11:26;3.52;3.39;2.72;1.78;14.39;14.37;14.19;13.32;10.63;0.76
67098;SPS30;54288;53.046;5.668;2023-07-30T07:13:52;3.79;3.63;2.88;1.84;14.82;14.80;14.60;13.62;10.76;0.78
67098;SPS30;54288;53.046;5.668;2023-07-30T07:16:17;3.83;3.68;2.93;1.89;15.23;15.20;15.01;14.03;11.12;0.78
67098;SPS30;54288;53.046;5.668;2023-07-30T07:18:44;3.60;3.45;2.74;1.75;14.12;14.10;13.91;12.98;10.26;0.79
67098;SPS30;54288;53.046;5.668;2023-07-30T07:21:10;3.88;3.72;2.92;1.83;14.79;14.76;14.55;13.52;10.60;0.81
67098;SPS30;54288;53.046;5.668;2023-07-30T07:23:36;3.64;3.48;2.73;1.69;13.66;13.64;13.44;12.46;9.74;0.80
67098;SPS30;54288;53.046;5.668;2023-07-30T07:26:02;3.97;3.81;2.99;1.88;15.18;15.15;14.94;13.88;10.90;0.79
67098;SPS30;54288;53.046;5.668;2023-07-30T07:28:27;3.83;3.68;2.89;1.81;14.65;14.62;14.41;13.40;10.52;0.79
67098;SPS30;54288;53.046;5.668;2023-07-30T07:30:54;3.62;3.47;2.72;1.69;13.68;13.65;13.46;12.49;9.78;0.80
67098;SPS30;54288;53.046;5.668;2023-07-30T07:33:20;4.16;3.99;3.11;1.92;15.53;15.50;15.27;14.14;11.03;0.81
67098;SPS30;54288;53.046;5.668;2023-07-30T07:35:46;4.10;3.93;3.07;1.91;15.42;15.39;15.17;14.06;11.00;0.82
67098;SPS30;54288;53.046;5.668;2023-07-30T07:38:11;3.82;3.65;2.84;1.74;14.05;14.02;13.81;12.76;9.92;0.82
67098;SPS30;54288;53.046;5.668;2023-07-30T07:40:37;3.71;3.55;2.76;1.68;13.57;13.55;13.34;12.32;9.56;0.81
67098;SPS30;54288;53.046;5.668;2023-07-30T07:43:07;3.86;3.69;2.87;1.75;14.12;14.09;13.87;12.81;9.94;0.82
67098;SPS30;54288;53.046;5.668;2023-07-30T07:45:33;3.40;3.26;2.53;1.54;12.45;12.42;12.23;11.29;8.76;0.81
67098;SPS30;54288;53.046;5.668;2023-07-30T07:47:59;3.79;3.63;2.85;1.78;14.37;14.34;14.14;13.13;10.29;0.80
67098;SPS30;54288;53.046;5.668;2023-07-30T07:50:25;3.10;2.97;2.35;1.50;12.09;12.06;11.90;11.10;8.76;0.79
67098;SPS30;54288;53.046;5.668;2023-07-30T07:52:51;3.55;3.41;2.68;1.68;13.55;13.53;13.34;12.39;9.73;0.80
67098;SPS30;54288;53.046;5.668;2023-07-30T07:55:16;3.63;3.48;2.73;1.70;13.70;13.67;13.47;12.50;9.78;0.81
67098;SPS30;54288;53.046;5.668;2023-07-30T07:57:42;3.32;3.18;2.51;1.59;12.85;12.82;12.65;11.78;9.28;0.80
67098;SPS30;54288;53.046;5.668;2023-07-30T08:00:08;3.44;3.30;2.58;1.60;12.89;12.86;12.68;11.75;9.18;0.81
67098;SPS30;54288;53.046;5.668;2023-07-30T08:02:37;3.55;3.41;2.67;1.67;13.47;13.45;13.26;12.31;9.64;0.81
67098;SPS30;54288;53.046;5.668;2023-07-30T08:05:03;3.22;3.09;2.46;1.60;12.87;12.85;12.69;11.87;9.43;0.78
67098;SPS30;54288;53.046;5.668;2023-07-30T08:07:29;3.37;3.24;2.60;1.70;13.73;13.71;13.54;12.70;10.13;0.77
67098;SPS30;54288;53.046;5.668;2023-07-30T08:09:55;6.21;5.98;4.83;3.23;26.04;26.00;25.70;24.21;19.44;0.77
67098;SPS30;54288;53.046;5.668;2023-07-30T08:12:20;4.50;4.35;3.58;2.49;20.02;19.99;19.79;18.78;15.27;0.75
67098;SPS30;54288;53.046;5.668;2023-07-30T08:14:47;3.07;2.96;2.43;1.68;13.51;13.49;13.35;12.65;10.27;0.76
67098;SPS30;54288;53.046;5.668;2023-07-30T08:17:12;3.37;3.25;2.64;1.78;14.36;14.34;14.18;13.38;10.78;0.76
67098;SPS30;54288;53.046;5.668;2023-07-30T08:19:38;3.59;3.45;2.74;1.77;14.31;14.28;14.10;13.19;10.47;0.79
67098;SPS30;54288;53.046;5.668;2023-07-30T08:22:04;3.22;3.10;2.47;1.60;12.87;12.84;12.68;11.86;9.42;0.79
67098;SPS30;54288;53.046;5.668;2023-07-30T08:24:30;3.16;3.04;2.40;1.53;12.38;12.36;12.19;11.37;8.98;0.79
67098;SPS30;54288;53.046;5.668;2023-07-30T08:26:55;3.46;3.32;2.65;1.71;13.83;13.81;13.63;12.76;10.13;0.77
67098;SPS30;54288;53.046;5.668;2023-07-30T08:29:21;3.06;2.94;2.36;1.55;12.53;12.51;12.36;11.60;9.27;0.78
67098;SPS30;54288;53.046;5.668;2023-07-30T08:31:47;2.70;2.60;2.08;1.37;11.04;11.02;10.88;10.22;8.16;0.77
67098;SPS30;54288;53.046;5.668;2023-07-30T08:34:13;2.60;2.50;2.02;1.35;10.87;10.85;10.73;10.10;8.11;0.77
67098;SPS30;54288;53.046;5.668;2023-07-30T08:36:38;3.02;2.90;2.34;1.56;12.58;12.56;12.41;11.68;9.37;0.77
67098;SPS30;54288;53.046;5.668;2023-07-30T08:39:04;2.76;2.66;2.15;1.44;11.58;11.56;11.43;10.77;8.65;0.78
67098;SPS30;54288;53.046;5.668;2023-07-30T08:41:30;3.41;3.28;2.62;1.71;13.78;13.76;13.59;12.73;10.14;0.78
67098;SPS30;54288;53.046;5.668;2023-07-30T08:43:56;3.22;3.09;2.45;1.57;12.63;12.61;12.44;11.61;9.18;0.79
67098;SPS30;54288;53.046;5.668;2023-07-30T08:46:22;2.99;2.88;2.31;1.52;12.25;12.22;12.08;11.34;9.06;0.78
67098;SPS30;54288;53.046;5.668;2023-07-30T08:48:48;3.23;3.10;2.49;1.63;13.16;13.13;12.97;12.17;9.71;0.79
67098;SPS30;54288;53.046;5.668;2023-07-30T08:51:14;3.11;3.00;2.44;1.65;13.27;13.25;13.10;12.37;9.97;0.77
67098;SPS30;54288;53.046;5.668;2023-07-30T08:53:42;2.78;2.68;2.20;1.52;12.20;12.19;12.06;11.43;9.27;0.76
67098;SPS30;54288;53.046;5.668;2023-07-30T08:56:07;2.62;2.53;2.11;1.50;12.04;12.02;11.91;11.35;9.30;0.74
67098;SPS30;54288;53.046;5.668;2023-07-30T08:58:34;2.62;2.54;2.12;1.53;12.27;12.25;12.14;11.60;9.53;0.72
67098;SPS30;54288;53.046;5.668;2023-07-30T09:01:02;2.36;2.28;1.92;1.39;11.21;11.20;11.10;10.62;8.75;0.72
67098;SPS30;54288;53.046;5.668;2023-07-30T09:03:39;2.47;2.39;2.00;1.44;11.57;11.55;11.45;10.94;8.99;0.73
67098;SPS30;54288;53.046;5.668;2023-07-30T09:06:08;2.35;2.27;1.88;1.32;10.61;10.59;10.49;9.97;8.13;0.73
67098;SPS30;54288;53.046;5.668;2023-07-30T09:08:34;2.38;2.30;1.91;1.35;10.87;10.86;10.76;10.25;8.38;0.73
67098;SPS30;54288;53.046;5.668;2023-07-30T09:11:09;2.60;2.51;2.09;1.49;11.99;11.98;11.87;11.31;9.27;0.73